Time;durP1;ratioP1;P1;durP2;ratioP2;P2;SDS_P1;SDS_P2;PMS_P1;PMS_P2;Temp;Humidity;BMP_temperature;BMP_pressure;BME280_temperature;BME280_humidity;BME280_pressure;Samples;Min_cycle;Max_cycle;Signal;HPM_P1;HPM_P2
2024/01/22 00:06:19;;;;;;;;;;;7.30;99.90;;;;;;6737563;88;20076;-77
2024/01/22 00:16:19;;;;;;;;;;;7.30;99.90;;;;;;6738007;88;20080;-76
2024/01/22 00:26:20;;;;;;;;;;;7.40;99.90;;;;;;6735451;88;20083;-77
2024/01/22 00:36:20;;;;;;;;;;;7.50;99.90;;;;;;6735427;88;20108;-77
2024/01/22 00:46:21;;;;;;;;;;;7.80;99.90;;;;;;6735056;88;20068;-77
2024/01/22 00:56:23;;;;;;;;;;;8.10;99.90;;;;;;6737562;77;20076;-75
2024/01/22 01:06:23;;;;;;;;;;;8.20;99.90;;;;;;6728464;88;20546;-76
2024/01/22 01:16:24;;;;;;;;;;;8.20;99.90;;;;;;6732070;88;20172;-75
2024/01/22 01:26:24;;;;;;;;;;;8.30;99.90;;;;;;6733227;88;20054;-75
2024/01/22 01:36:25;;;;;;;;;;;8.30;99.90;;;;;;6728909;88;20460;-75
2024/01/22 01:46:25;;;;;;;;;;;8.20;99.90;;;;;;6731616;88;20050;-76
2024/01/22 01:56:26;;;;;;;;;;;8.40;99.90;;;;;;6727581;88;20102;-77
2024/01/22 02:06:26;;;;;;;;;;;8.30;99.90;;;;;;6727966;88;20101;-76
2024/01/22 02:16:27;;;;;;;;;;;8.30;99.90;;;;;;6733800;88;20054;-76
2024/01/22 02:26:27;;;;;;;;;;;8.40;99.90;;;;;;6733142;88;20577;-76
2024/01/22 02:36:27;;;;;;;;;;;8.50;99.90;;;;;;6730261;88;20059;-75
2024/01/22 02:46:29;;;;;;;;;;;8.60;99.90;;;;;;6731530;88;20059;-77
2024/01/22 02:56:29;;;;;;;;;;;8.80;99.90;;;;;;6731637;88;20215;-76
2024/01/22 03:06:30;;;;;;;;;;;8.70;99.90;;;;;;6740414;88;20202;-75
2024/01/22 03:16:30;;;;;;;;;;;8.70;99.90;;;;;;6728533;88;20509;-76
2024/01/22 03:26:31;;;;;;;;;;;8.70;99.90;;;;;;6727840;88;20124;-76
2024/01/22 03:36:31;;;;;;;;;;;8.60;99.90;;;;;;6732929;88;20538;-77
2024/01/22 03:46:32;;;;;;;;;;;8.60;99.90;;;;;;6729727;88;20111;-77
2024/01/22 03:56:32;;;;;;;;;;;8.60;99.90;;;;;;6732521;88;20145;-76
2024/01/22 04:06:32;;;;;;;;;;;8.70;99.90;;;;;;6728580;88;20070;-75
2024/01/22 04:16:33;;;;;;;;;;;8.80;99.90;;;;;;6731958;88;20070;-76
2024/01/22 04:26:33;;;;;;;;;;;8.70;99.90;;;;;;6730113;88;20183;-74
2024/01/22 04:36:34;;;;;;;;;;;8.70;99.90;;;;;;6732211;88;20101;-76
2024/01/22 04:46:34;;;;;;;;;;;8.70;99.90;;;;;;6732241;88;20058;-76
2024/01/22 04:56:41;;;;;;;;;;;8.60;99.90;;;;;;6735050;88;20580;-75
2024/01/22 05:06:42;;;;;;;;;;;8.60;99.90;;;;;;6735459;88;20053;-76
2024/01/22 05:16:42;;;;;;;;;;;8.50;99.90;;;;;;6732217;88;20100;-74
2024/01/22 05:26:42;;;;;;;;;;;8.60;99.90;;;;;;6732800;88;20085;-76
2024/01/22 05:36:43;;;;;;;;;;;8.80;99.90;;;;;;6732215;88;20237;-76
2024/01/22 05:46:43;;;;;;;;;;;8.70;99.90;;;;;;6733731;88;20144;-77
2024/01/22 05:56:44;;;;;;;;;;;8.60;99.90;;;;;;6735485;88;20063;-77
2024/01/22 06:06:44;;;;;;;;;;;8.80;99.90;;;;;;6733938;88;20088;-77
2024/01/22 06:16:46;;;;;;;;;;;8.80;99.90;;;;;;6731899;88;20058;-76
2024/01/22 06:26:47;;;;;;;;;;;9.00;99.90;;;;;;6734853;88;20046;-75
2024/01/22 06:36:47;;;;;;;;;;;9.10;99.90;;;;;;6744875;88;20501;-75
2024/01/22 06:46:47;;;;;;;;;;;9.20;99.90;;;;;;6733646;88;20063;-75
2024/01/22 06:56:48;;;;;;;;;;;9.30;99.90;;;;;;6747370;77;20070;-74
2024/01/22 07:06:48;;;;;;;;;;;9.30;99.90;;;;;;6732123;88;20068;-74
2024/01/22 07:16:49;;;;;;;;;;;9.20;99.90;;;;;;6732210;88;20643;-73
2024/01/22 07:26:49;;;;;;;;;;;9.30;99.90;;;;;;6734331;88;20475;-73
2024/01/22 07:36:50;;;;;;;;;;;9.20;99.90;;;;;;6737841;88;20050;-73
2024/01/22 07:46:50;;;;;;;;;;;9.20;99.90;;;;;;6730099;88;20076;-74
2024/01/22 07:56:51;;;;;;;;;;;9.20;99.90;;;;;;6730332;88;20116;-73
2024/01/22 08:06:53;;;;;;;;;;;9.10;99.90;;;;;;6730555;88;20243;-74
2024/01/22 08:16:54;;;;;;;;;;;9.30;99.90;;;;;;6727176;88;20120;-73
2024/01/22 08:26:54;;;;;;;;;;;9.40;99.90;;;;;;6734907;88;20150;-74
2024/01/22 08:36:55;;;;;;;;;;;9.60;99.90;;;;;;6741189;88;20043;-73
2024/01/22 08:46:55;;;;;;;;;;;10.00;99.90;;;;;;6735283;88;20054;-75
2024/01/22 08:56:56;;;;;;;;;;;10.60;99.90;;;;;;6733457;88;20124;-73
2024/01/22 09:06:56;;;;;;;;;;;11.00;99.90;;;;;;6731830;88;20091;-73
2024/01/22 09:16:57;;;;;;;;;;;11.40;99.90;;;;;;6730347;88;20065;-74
2024/01/22 09:26:57;;;;;;;;;;;11.50;99.90;;;;;;6736957;88;20794;-72
2024/01/22 09:36:58;;;;;;;;;;;11.70;99.90;;;;;;6731524;88;20075;-73
2024/01/22 09:46:59;;;;;;;;;;;11.80;99.90;;;;;;6733465;88;20249;-73
2024/01/22 09:57:02;;;;;;;;;;;12.00;99.90;;;;;;6732759;88;20065;-73
2024/01/22 10:07:04;;;;;;;;;;;12.10;99.90;;;;;;6731932;88;20283;-74
2024/01/22 10:17:15;;;;;;;;;;;12.00;99.90;;;;;;6731128;88;20156;-75
2024/01/22 10:27:16;;;;;;;;;;;11.90;99.90;;;;;;6729630;88;20058;-74
2024/01/22 10:37:17;;;;;;;;;;;11.90;99.90;;;;;;6730065;88;20061;-74
2024/01/22 10:47:18;;;;;;;;;;;11.80;99.90;;;;;;6730670;88;20250;-74
2024/01/22 10:57:37;;;;;;;;;;;11.80;99.90;;;;;;6734653;88;20067;-74
2024/01/22 11:07:39;;;;;;;;;;;11.70;99.90;;;;;;6735795;88;20087;-75
2024/01/22 11:17:39;;;;;;;;;;;11.70;99.90;;;;;;6737840;88;20662;-74
2024/01/22 11:27:41;;;;;;;;;;;11.60;99.90;;;;;;6729633;88;20124;-74
2024/01/22 11:37:42;;;;;;;;;;;11.50;99.90;;;;;;6730771;88;20181;-72
2024/01/22 11:47:42;;;;;;;;;;;11.50;99.90;;;;;;6730949;88;20510;-73
2024/01/22 11:57:43;;;;;;;;;;;11.40;99.90;;;;;;6731344;88;20080;-73
2024/01/22 12:07:46;;;;;;;;;;;11.40;99.90;;;;;;6731883;88;20173;-74
2024/01/22 12:17:46;;;;;;;;;;;11.50;99.90;;;;;;6731176;88;20081;-74
2024/01/22 12:27:47;;;;;;;;;;;11.70;99.90;;;;;;6730992;88;20068;-74
2024/01/22 12:37:48;;;;;;;;;;;12.10;99.90;;;;;;6731029;88;20134;-74
2024/01/22 12:47:48;;;;;;;;;;;12.20;99.90;;;;;;6729273;88;20072;-73
2024/01/22 12:57:49;;;;;;;;;;;12.00;99.90;;;;;;6745997;76;20212;-76
2024/01/22 13:07:49;;;;;;;;;;;12.10;99.90;;;;;;6733312;88;20573;-76
2024/01/22 13:17:50;;;;;;;;;;;12.50;99.90;;;;;;6730469;88;20052;-77
2024/01/22 13:27:51;;;;;;;;;;;13.50;99.90;;;;;;6735530;87;20189;-76
2024/01/22 13:37:51;;;;;;;;;;;13.00;99.90;;;;;;6733607;87;20167;-76
2024/01/22 13:47:52;;;;;;;;;;;13.10;99.90;;;;;;6732062;88;20079;-76
2024/01/22 13:57:54;;;;;;;;;;;13.30;99.90;;;;;;6733264;87;20108;-77
2024/01/22 14:07:54;;;;;;;;;;;13.40;99.90;;;;;;6739827;88;20521;-77
2024/01/22 14:17:55;;;;;;;;;;;13.70;99.90;;;;;;6731472;88;20062;-77
2024/01/22 14:27:56;;;;;;;;;;;14.10;99.90;;;;;;6730999;88;20592;-76
2024/01/22 14:37:57;;;;;;;;;;;13.60;99.90;;;;;;6731977;88;20642;-76
2024/01/22 14:47:57;;;;;;;;;;;13.60;99.90;;;;;;6737564;88;20095;-76
2024/01/22 14:57:58;;;;;;;;;;;12.80;99.90;;;;;;6740050;87;20070;-77
2024/01/22 15:07:58;;;;;;;;;;;12.30;99.90;;;;;;6738791;88;20054;-76
2024/01/22 15:17:59;;;;;;;;;;;12.10;99.90;;;;;;6729731;88;20051;-76
2024/01/22 15:27:59;;;;;;;;;;;11.90;99.90;;;;;;6728230;88;20079;-77
2024/01/22 15:38:00;;;;;;;;;;;11.40;99.90;;;;;;6736796;88;20053;-76
2024/01/22 15:48:00;;;;;;;;;;;11.00;99.90;;;;;;6737341;87;20077;-76
2024/01/22 15:58:01;;;;;;;;;;;10.80;99.90;;;;;;6736057;87;20069;-77
2024/01/22 16:08:01;;;;;;;;;;;10.70;99.90;;;;;;6737832;87;20128;-77
2024/01/22 16:18:02;;;;;;;;;;;10.40;99.90;;;;;;6729127;88;20055;-76
2024/01/22 16:28:02;;;;;;;;;;;10.10;99.90;;;;;;6738641;88;20137;-75
2024/01/22 16:38:03;;;;;;;;;;;9.90;99.90;;;;;;6744884;88;20080;-76
2024/01/22 16:48:03;;;;;;;;;;;9.70;99.90;;;;;;6733922;87;20082;-75
2024/01/22 16:58:04;;;;;;;;;;;9.40;99.90;;;;;;6733642;88;20181;-75
2024/01/22 17:08:04;;;;;;;;;;;9.40;99.90;;;;;;6734200;88;20580;-75
2024/01/22 17:18:08;;;;;;;;;;;9.30;99.90;;;;;;6734844;88;20046;-77
2024/01/22 17:28:08;;;;;;;;;;;9.10;99.90;;;;;;6730759;88;20104;-77
2024/01/22 17:38:09;;;;;;;;;;;8.90;99.90;;;;;;6738199;88;20054;-78
2024/01/22 17:48:10;;;;;;;;;;;8.70;99.90;;;;;;6735979;88;20529;-77
2024/01/22 17:58:10;;;;;;;;;;;8.50;99.90;;;;;;6734944;88;20063;-78
2024/01/22 18:08:11;;;;;;;;;;;8.50;99.90;;;;;;6742243;88;20054;-77
2024/01/22 18:18:11;;;;;;;;;;;8.40;99.90;;;;;;6740056;88;20133;-78
2024/01/22 18:28:12;;;;;;;;;;;8.20;99.90;;;;;;6740068;88;20572;-75
2024/01/22 18:38:12;;;;;;;;;;;8.20;99.90;;;;;;6733202;88;20047;-76
2024/01/22 18:48:13;;;;;;;;;;;8.10;99.90;;;;;;6736980;88;20886;-77
2024/01/22 18:58:13;;;;;;;;;;;8.10;99.90;;;;;;6737863;77;20554;-75
2024/01/22 19:08:14;;;;;;;;;;;8.30;99.90;;;;;;6730707;88;20104;-76
2024/01/22 19:18:14;;;;;;;;;;;8.40;99.90;;;;;;6733670;88;20123;-76
2024/01/22 19:28:15;;;;;;;;;;;8.60;99.90;;;;;;6727246;88;20090;-78
2024/01/22 19:38:15;;;;;;;;;;;8.60;99.90;;;;;;6727301;88;20084;-76
2024/01/22 19:48:16;;;;;;;;;;;8.70;99.90;;;;;;6728578;88;20149;-77
2024/01/22 19:58:16;;;;;;;;;;;8.60;99.90;;;;;;6723276;88;20081;-76
2024/01/22 20:08:16;;;;;;;;;;;8.80;99.90;;;;;;6728275;88;20066;-76
2024/01/22 20:18:17;;;;;;;;;;;8.90;99.90;;;;;;6726627;88;20062;-76
2024/01/22 20:28:18;;;;;;;;;;;9.10;99.90;;;;;;6729109;88;20118;-77
2024/01/22 20:38:18;;;;;;;;;;;9.10;99.90;;;;;;6728293;88;20046;-76
2024/01/22 20:48:21;;;;;;;;;;;9.00;99.90;;;;;;6722068;88;20758;-76
2024/01/22 20:58:22;;;;;;;;;;;9.10;99.90;;;;;;6729017;88;20602;-77
2024/01/22 21:08:23;;;;;;;;;;;8.90;99.90;;;;;;6731593;88;20062;-77
2024/01/22 21:18:23;;;;;;;;;;;8.90;99.90;;;;;;6727037;88;20085;-77
2024/01/22 21:28:24;;;;;;;;;;;8.80;99.90;;;;;;6726655;88;20207;-77
2024/01/22 21:38:24;;;;;;;;;;;8.70;99.90;;;;;;6730931;88;20600;-77
2024/01/22 21:48:25;;;;;;;;;;;8.50;99.90;;;;;;6730050;88;20113;-77
2024/01/22 21:58:25;;;;;;;;;;;8.70;99.90;;;;;;6728596;88;20097;-75
2024/01/22 22:08:26;;;;;;;;;;;8.90;99.90;;;;;;6733449;88;20101;-76
2024/01/22 22:18:27;;;;;;;;;;;8.80;99.90;;;;;;6730565;88;20073;-76
2024/01/22 22:28:27;;;;;;;;;;;8.80;99.90;;;;;;6725001;88;20135;-76
2024/01/22 22:38:28;;;;;;;;;;;8.90;99.90;;;;;;6722289;88;20550;-76
2024/01/22 22:48:28;;;;;;;;;;;8.90;99.90;;;;;;6726289;88;20606;-78
2024/01/22 22:58:29;;;;;;;;;;;8.80;99.90;;;;;;6727645;88;20129;-76
2024/01/22 23:08:29;;;;;;;;;;;8.60;99.90;;;;;;6724425;88;20059;-76
2024/01/22 23:18:30;;;;;;;;;;;8.60;99.90;;;;;;6724333;88;20063;-76
2024/01/22 23:28:31;;;;;;;;;;;8.50;99.90;;;;;;6733442;88;20590;-76
2024/01/22 23:38:32;;;;;;;;;;;8.50;99.90;;;;;;6729358;88;20184;-77
2024/01/22 23:48:32;;;;;;;;;;;8.60;99.90;;;;;;6728733;88;20062;-76
2024/01/22 23:58:33;;;;;;;;;;;8.80;99.90;;;;;;6730534;88;20128;-76
